createdAt,value
2024-05-09T00:01:56.337Z,14.96
2024-05-09T00:06:59.134Z,14.90
2024-05-09T00:12:02.401Z,14.84
2024-05-09T00:17:05.428Z,14.78
2024-05-09T00:22:10.198Z,14.70
2024-05-09T00:27:13.506Z,14.63
2024-05-09T00:32:16.463Z,14.56
2024-05-09T00:37:19.342Z,14.51
2024-05-09T00:42:22.420Z,14.48
2024-05-09T00:47:25.582Z,14.44
2024-05-09T00:52:28.988Z,14.40
2024-05-09T00:57:32.452Z,14.35
2024-05-09T01:02:35.820Z,14.28
2024-05-09T01:07:38.956Z,14.22
2024-05-09T01:12:41.778Z,14.16
2024-05-09T01:17:46.139Z,14.12
2024-05-09T01:22:50.538Z,14.07
2024-05-09T01:27:53.347Z,14.03
2024-05-09T01:32:56.847Z,13.98
2024-05-09T01:38:00.239Z,13.91
2024-05-09T01:43:03.511Z,13.83
2024-05-09T01:48:07.050Z,13.75
2024-05-09T01:53:14.923Z,13.65
2024-05-09T01:58:18.265Z,13.56
2024-05-09T02:03:21.747Z,13.46
2024-05-09T02:08:24.736Z,13.38
2024-05-09T02:13:27.731Z,13.32
2024-05-09T02:18:30.903Z,13.24
2024-05-09T02:23:33.954Z,13.16
2024-05-09T02:28:36.866Z,13.08
2024-05-09T02:33:39.857Z,13.00
2024-05-09T02:38:43.070Z,12.92
2024-05-09T02:43:46.018Z,12.85
2024-05-09T02:48:49.025Z,12.77
2024-05-09T02:53:51.960Z,12.73
2024-05-09T02:58:56.752Z,12.83
2024-05-09T03:03:59.858Z,13.24
2024-05-09T03:09:04.777Z,13.59
2024-05-09T03:14:07.726Z,13.88
2024-05-09T03:19:10.865Z,14.09
2024-05-09T03:24:14.017Z,14.20
2024-05-09T03:29:16.928Z,14.26
2024-05-09T03:34:19.908Z,14.26
2024-05-09T03:39:22.836Z,14.17
2024-05-09T03:44:25.949Z,14.01
2024-05-09T03:49:29.079Z,13.89
2024-05-09T03:54:35.517Z,13.75
2024-05-09T03:59:38.361Z,13.60
2024-05-09T04:04:42.144Z,13.47
2024-05-09T04:09:45.002Z,13.39
2024-05-09T04:14:47.893Z,13.33
2024-05-09T04:19:50.826Z,13.28
2024-05-09T04:24:53.758Z,13.25
2024-05-09T04:29:56.643Z,13.25
2024-05-09T04:34:59.512Z,13.27
2024-05-09T04:40:03.092Z,13.28
2024-05-09T04:45:06.653Z,13.31
2024-05-09T04:50:11.850Z,13.32
2024-05-09T04:55:17.699Z,13.34
2024-05-09T05:00:28.503Z,13.37
2024-05-09T05:05:40.302Z,13.42
2024-05-09T05:10:44.018Z,13.47
2024-05-09T05:15:47.863Z,13.52
2024-05-09T05:20:50.996Z,13.58
2024-05-09T05:25:54.934Z,13.64
2024-05-09T05:30:58.143Z,13.71
2024-05-09T05:36:00.994Z,13.82
2024-05-09T05:41:04.150Z,13.95
2024-05-09T05:46:07.178Z,14.10
2024-05-09T05:51:10.342Z,14.20
2024-05-09T05:56:13.332Z,14.30
2024-05-09T06:01:16.146Z,14.38
2024-05-09T06:06:18.991Z,14.45
2024-05-09T06:11:22.064Z,14.52
2024-05-09T06:16:25.011Z,14.58
2024-05-09T06:21:27.993Z,14.66
2024-05-09T06:26:30.952Z,14.71
2024-05-09T06:31:39.771Z,14.77
2024-05-09T06:36:42.723Z,14.80
2024-05-09T06:41:45.581Z,14.89
2024-05-09T06:46:48.993Z,14.94
2024-05-09T06:51:52.066Z,14.96
2024-05-09T06:56:55.030Z,15.02
2024-05-09T07:01:57.896Z,15.07
2024-05-09T07:07:00.755Z,15.14
2024-05-09T07:12:04.624Z,15.25
2024-05-09T07:17:07.705Z,15.35
2024-05-09T07:22:10.795Z,15.40
2024-05-09T07:27:13.852Z,15.41
2024-05-09T07:32:16.808Z,15.49
2024-05-09T07:37:19.707Z,15.60
2024-05-09T07:42:22.783Z,15.71
2024-05-09T07:48:56.936Z,15.81
2024-05-09T07:58:00.624Z,16.04
2024-05-09T08:03:04.045Z,16.18
2024-05-09T08:08:07.964Z,16.32
2024-05-09T08:13:11.047Z,16.45
2024-05-09T08:18:14.251Z,16.57
2024-05-09T08:23:17.909Z,16.71
2024-05-09T08:28:21.252Z,16.85
2024-05-09T08:33:24.249Z,16.97
2024-05-09T08:38:29.930Z,17.12
2024-05-09T08:43:32.827Z,17.29
2024-05-09T08:48:40.218Z,17.43
2024-05-09T08:53:43.243Z,17.58
2024-05-09T08:58:49.066Z,17.73
2024-05-09T09:03:53.618Z,17.83
2024-05-09T09:08:57.773Z,18.09
2024-05-09T09:14:00.886Z,18.48
2024-05-09T09:19:04.659Z,18.86
2024-05-09T09:24:09.934Z,19.12
2024-05-09T09:29:19.944Z,19.41
2024-05-09T09:34:27.878Z,19.65
2024-05-09T09:39:38.939Z,19.84
2024-05-09T09:44:47.819Z,20.05
2024-05-09T09:49:55.614Z,20.22
2024-05-09T09:54:59.487Z,20.35
2024-05-09T10:00:07.269Z,20.52
2024-05-09T10:05:15.440Z,20.70
2024-05-09T10:10:32.024Z,20.82
2024-05-09T10:15:46.460Z,21.01
2024-05-09T10:20:51.714Z,21.22
2024-05-09T10:25:58.882Z,21.44
2024-05-09T10:31:15.879Z,21.64
2024-05-09T10:36:25.639Z,21.83
2024-05-09T10:41:28.513Z,22.03
2024-05-09T10:46:31.822Z,22.21
2024-05-09T10:51:35.608Z,22.39
2024-05-09T10:56:38.635Z,22.49
2024-05-09T11:01:41.740Z,22.55
2024-05-09T11:06:46.461Z,22.52
2024-05-09T11:11:49.749Z,22.50
2024-05-09T11:17:05.673Z,22.48
2024-05-09T11:22:08.944Z,22.59
2024-05-09T11:27:12.765Z,22.79
2024-05-09T11:32:16.584Z,22.94
2024-05-09T11:37:19.845Z,23.05
2024-05-09T11:42:22.782Z,23.13
2024-05-09T11:47:25.859Z,23.22
2024-05-09T11:52:28.837Z,23.31
2024-05-09T11:57:32.174Z,23.38
2024-05-09T12:02:35.080Z,23.44
2024-05-09T12:07:37.954Z,23.53
2024-05-09T12:12:40.914Z,23.64
2024-05-09T12:17:44.853Z,23.61
2024-05-09T12:22:48.606Z,23.53
2024-05-09T12:27:51.882Z,23.64
2024-05-09T12:32:54.920Z,23.85
2024-05-09T12:37:57.878Z,23.98
2024-05-09T12:43:00.873Z,24.07
2024-05-09T12:48:06.882Z,24.15
2024-05-09T12:53:10.091Z,24.28
2024-05-09T12:58:13.711Z,24.49
2024-05-09T13:03:16.807Z,24.67
2024-05-09T13:08:20.390Z,24.70
2024-05-09T13:13:23.415Z,24.68
2024-05-09T13:18:26.251Z,24.63
2024-05-09T13:23:29.314Z,24.75
2024-05-09T13:28:33.580Z,24.85
2024-05-09T13:33:36.648Z,24.95
2024-05-09T13:38:39.636Z,25.02
2024-05-09T13:43:42.525Z,25.11
2024-05-09T13:48:46.167Z,25.28
2024-05-09T13:53:49.103Z,25.39
2024-05-09T13:58:52.310Z,25.43
2024-05-09T14:03:55.401Z,25.35
2024-05-09T14:08:58.531Z,25.35
2024-05-09T14:14:01.987Z,25.34
2024-05-09T14:19:05.047Z,25.30
2024-05-09T14:24:08.246Z,25.20
2024-05-09T14:29:11.161Z,25.07
2024-05-09T14:34:14.342Z,24.82
2024-05-09T14:39:17.375Z,24.35
2024-05-09T14:44:20.435Z,23.84
2024-05-09T14:49:23.310Z,23.40
2024-05-09T14:54:26.130Z,23.16
2024-05-09T14:59:29.013Z,22.95
2024-05-09T15:04:32.152Z,22.74
2024-05-09T15:09:36.120Z,22.60
2024-05-09T15:14:39.007Z,22.44
2024-05-09T15:19:42.119Z,22.27
2024-05-09T15:24:46.613Z,22.14
2024-05-09T15:29:49.484Z,22.02
2024-05-09T15:34:52.591Z,21.95
2024-05-09T15:39:55.509Z,21.89
2024-05-09T15:44:58.635Z,21.84
2024-05-09T15:50:01.660Z,21.82
2024-05-09T15:55:05.702Z,21.79
2024-05-09T16:00:15.243Z,21.79
2024-05-09T16:05:24.979Z,21.81
2024-05-09T16:10:32.648Z,21.79
2024-05-09T16:15:37.121Z,21.73
2024-05-09T16:20:42.292Z,21.66
2024-05-09T16:25:48.080Z,21.59
2024-05-09T16:30:51.546Z,21.53
2024-05-09T16:35:54.499Z,21.46
2024-05-09T16:40:57.481Z,21.39
2024-05-09T16:46:01.427Z,21.35
2024-05-09T16:51:05.019Z,21.30
2024-05-09T16:56:08.222Z,21.26
2024-05-09T17:01:13.630Z,21.23
2024-05-09T17:06:17.185Z,21.20
2024-05-09T17:11:20.209Z,21.17
2024-05-09T17:16:23.263Z,21.16
2024-05-09T17:21:26.413Z,21.13
2024-05-09T17:26:30.993Z,21.09
2024-05-09T17:31:34.021Z,21.05
2024-05-09T17:36:37.197Z,20.98
2024-05-09T17:41:40.184Z,20.91
2024-05-09T17:46:43.127Z,20.81
2024-05-09T17:51:55.543Z,20.69
2024-05-09T17:56:58.832Z,20.58
2024-05-09T18:02:02.175Z,20.46
2024-05-09T18:07:05.730Z,20.35
2024-05-09T18:12:08.850Z,20.22
2024-05-09T18:17:13.347Z,20.08
2024-05-09T18:22:16.439Z,19.90
2024-05-09T18:27:19.377Z,19.70
2024-05-09T18:32:22.323Z,19.50
2024-05-09T18:37:25.504Z,19.33
2024-05-09T18:42:28.479Z,19.13
2024-05-09T18:47:32.199Z,18.96
2024-05-09T18:52:35.115Z,18.83
2024-05-09T18:57:37.968Z,18.69
2024-05-09T19:02:41.028Z,18.50
2024-05-09T19:07:44.409Z,18.34
2024-05-09T19:12:47.441Z,18.23
2024-05-09T19:17:50.543Z,18.16
2024-05-09T19:22:53.548Z,18.08
2024-05-09T19:27:56.703Z,18.01
2024-05-09T19:32:59.904Z,17.93
2024-05-09T19:38:03.718Z,17.84
2024-05-09T19:43:07.119Z,17.76
2024-05-09T19:48:10.724Z,17.68
2024-05-09T19:53:14.518Z,17.59
2024-05-09T19:58:18.446Z,17.50
2024-05-09T20:03:21.590Z,17.40
2024-05-09T20:08:24.985Z,17.30
2024-05-09T20:13:28.109Z,17.23
2024-05-09T20:18:31.311Z,17.16
2024-05-09T20:23:34.305Z,17.09
2024-05-09T20:28:37.601Z,17.03
2024-05-09T20:33:40.791Z,16.98
2024-05-09T20:38:43.914Z,16.93
2024-05-09T20:43:52.071Z,16.87
2024-05-09T20:48:59.485Z,16.80
2024-05-09T20:54:03.388Z,16.74
2024-05-09T20:59:11.082Z,16.69
2024-05-09T21:04:16.153Z,16.62
2024-05-09T21:09:25.521Z,16.57
2024-05-09T21:14:28.737Z,16.49
2024-05-09T21:19:31.632Z,16.40
2024-05-09T21:24:34.598Z,16.31
2024-05-09T21:29:37.517Z,16.22
2024-05-09T21:34:40.513Z,16.15
2024-05-09T21:39:43.683Z,16.06
2024-05-09T21:44:46.655Z,15.97
2024-05-09T21:49:49.779Z,15.90
2024-05-09T21:54:52.790Z,15.83
2024-05-09T21:59:55.775Z,15.73
2024-05-09T22:04:59.811Z,15.65
2024-05-09T22:10:10.073Z,15.56
2024-05-09T22:15:21.078Z,15.46
2024-05-09T22:20:32.879Z,15.36
2024-05-09T22:25:39.509Z,15.22
2024-05-09T22:30:44.023Z,15.10
2024-05-09T22:35:48.038Z,14.99
2024-05-09T22:40:52.207Z,14.89
2024-05-09T22:45:55.707Z,14.78
2024-05-09T22:50:59.085Z,14.67
2024-05-09T22:56:02.551Z,14.59
2024-05-09T23:01:05.848Z,14.52
2024-05-09T23:06:08.950Z,14.43
2024-05-09T23:11:11.981Z,14.35
2024-05-09T23:16:14.994Z,14.27
2024-05-09T23:21:18.069Z,14.19
2024-05-09T23:26:20.973Z,14.13
2024-05-09T23:31:24.064Z,14.05
2024-05-09T23:36:29.075Z,13.96
2024-05-09T23:41:32.136Z,13.87
2024-05-09T23:46:35.410Z,13.75
2024-05-09T23:51:38.364Z,13.65
2024-05-09T23:56:41.278Z,13.55
